createdAt,value
2018-06-13T00:00:02.513Z,19.30
2018-06-13T00:02:31.425Z,19.00
2018-06-13T00:05:00.516Z,18.60
2018-06-13T00:07:29.613Z,18.50
2018-06-13T00:09:58.513Z,18.30
2018-06-13T00:12:27.522Z,18.50
2018-06-13T00:14:56.413Z,18.40
2018-06-13T00:17:25.521Z,18.10
2018-06-13T00:19:54.516Z,18.20
2018-06-13T00:22:23.382Z,18.20
2018-06-13T00:24:52.348Z,18.40
2018-06-13T00:27:21.218Z,18.40
2018-06-13T00:29:50.148Z,18.20
2018-06-13T00:32:19.041Z,18.20
2018-06-13T00:34:47.925Z,17.80
2018-06-13T00:37:16.885Z,17.90
2018-06-13T00:39:45.777Z,17.90
2018-06-13T00:42:14.685Z,18.30
2018-06-13T00:44:43.597Z,18.20
2018-06-13T00:47:12.487Z,18.30
2018-06-13T00:49:41.360Z,18.20
2018-06-13T00:52:10.264Z,17.90
2018-06-13T00:54:39.152Z,18.20
2018-06-13T00:57:08.072Z,18.00
2018-06-13T00:59:36.956Z,17.90
2018-06-13T01:02:05.857Z,17.70
2018-06-13T01:04:34.724Z,17.50
2018-06-13T01:07:03.577Z,17.60
2018-06-13T01:09:32.513Z,17.70
2018-06-13T01:14:29.979Z,17.80
2018-06-13T01:16:58.909Z,17.70
2018-06-13T01:19:27.828Z,17.70
2018-06-13T01:21:56.788Z,17.80
2018-06-13T01:24:25.746Z,17.70
2018-06-13T01:26:54.953Z,18.00
2018-06-13T01:29:24.029Z,17.80
2018-06-13T01:31:52.930Z,17.70
2018-06-13T01:34:21.896Z,17.80
2018-06-13T01:36:50.720Z,17.70
2018-06-13T01:39:19.600Z,18.00
2018-06-13T01:41:48.481Z,17.90
2018-06-13T01:44:17.371Z,17.80
2018-06-13T01:46:46.285Z,17.80
2018-06-13T01:49:15.157Z,17.60
2018-06-13T01:51:44.024Z,17.60
2018-06-13T01:54:12.889Z,17.90
2018-06-13T01:56:41.764Z,18.20
2018-06-13T01:59:10.629Z,18.00
2018-06-13T02:01:39.517Z,18.10
2018-06-13T02:04:08.401Z,17.90
2018-06-13T02:06:38.128Z,17.70
2018-06-13T02:09:07.890Z,17.80
2018-06-13T02:11:37.028Z,17.60
2018-06-13T02:14:05.890Z,17.90
2018-06-13T02:16:34.775Z,17.80
2018-06-13T02:19:03.668Z,17.80
2018-06-13T02:21:33.106Z,18.00
2018-06-13T02:24:02.002Z,18.10
2018-06-13T02:26:31.493Z,18.10
2018-06-13T02:29:00.358Z,18.60
2018-06-13T02:33:57.881Z,18.40
2018-06-13T02:36:26.840Z,17.90
2018-06-13T02:38:55.753Z,17.80
2018-06-13T02:41:24.682Z,17.90
2018-06-13T02:43:55.479Z,17.80
2018-06-13T02:46:24.617Z,17.70
2018-06-13T02:48:55.405Z,17.60
2018-06-13T02:51:25.112Z,17.60
2018-06-13T02:53:54.037Z,17.50
2018-06-13T02:56:22.895Z,18.10
2018-06-13T02:58:51.789Z,18.20
2018-06-13T03:01:20.689Z,18.30
2018-06-13T03:03:49.540Z,18.00
2018-06-13T03:06:18.417Z,17.80
2018-06-13T03:08:47.305Z,17.60
2018-06-13T03:11:16.239Z,17.50
2018-06-13T03:13:45.100Z,17.40
2018-06-13T03:16:13.997Z,17.80
2018-06-13T03:18:42.948Z,17.70
2018-06-13T03:21:11.803Z,17.70
2018-06-13T03:23:40.795Z,17.60
2018-06-13T03:26:09.666Z,17.70
2018-06-13T03:28:38.529Z,17.60
2018-06-13T03:31:07.389Z,17.60
2018-06-13T03:33:36.225Z,17.70
2018-06-13T03:36:05.412Z,17.50
2018-06-13T03:38:34.429Z,17.40
2018-06-13T03:41:03.488Z,17.40
2018-06-13T03:43:32.404Z,17.90
2018-06-13T03:48:29.857Z,18.10
2018-06-13T03:50:58.781Z,18.00
2018-06-13T03:53:27.677Z,17.90
2018-06-13T03:55:56.597Z,17.70
2018-06-13T03:58:25.505Z,18.10
2018-06-13T04:00:59.702Z,17.80
2018-06-13T04:03:28.596Z,17.70
2018-06-13T04:05:57.936Z,18.10
2018-06-13T04:08:26.796Z,17.90
2018-06-13T04:10:55.833Z,17.80
2018-06-13T04:13:25.338Z,17.90
2018-06-13T04:15:54.209Z,17.80
2018-06-13T04:18:23.073Z,18.00
2018-06-13T04:20:51.949Z,17.70
2018-06-13T04:23:20.942Z,18.10
2018-06-13T04:25:49.798Z,18.60
2018-06-13T04:28:18.654Z,18.50
2018-06-13T04:30:47.511Z,18.50
2018-06-13T04:33:16.397Z,19.00
2018-06-13T04:35:46.090Z,18.70
2018-06-13T04:38:14.925Z,18.20
2018-06-13T04:40:44.029Z,18.10
2018-06-13T04:43:12.939Z,17.90
2018-06-13T04:45:41.781Z,17.80
2018-06-13T04:48:10.703Z,17.90
2018-06-13T04:50:39.591Z,18.00
2018-06-13T04:53:08.484Z,17.80
2018-06-13T04:55:37.364Z,17.80
2018-06-13T04:58:06.235Z,18.10
2018-06-13T05:00:35.125Z,18.30
2018-06-13T05:03:04.022Z,18.00
2018-06-13T05:05:32.893Z,18.10
2018-06-13T05:08:01.754Z,18.00
2018-06-13T05:10:30.673Z,18.10
2018-06-13T05:12:59.600Z,18.30
2018-06-13T05:15:28.491Z,18.30
2018-06-13T05:17:57.368Z,18.20
2018-06-13T05:22:54.953Z,18.30
2018-06-13T05:25:23.862Z,18.80
2018-06-13T05:27:52.757Z,18.70
2018-06-13T05:30:21.629Z,18.10
2018-06-13T05:32:50.520Z,18.10
2018-06-13T05:35:19.408Z,18.70
2018-06-13T05:40:16.892Z,18.50
2018-06-13T05:42:45.793Z,18.10
2018-06-13T05:45:14.658Z,18.40
2018-06-13T05:47:43.517Z,18.40
2018-06-13T05:50:12.416Z,18.40
2018-06-13T05:52:41.247Z,18.60
2018-06-13T05:55:10.109Z,18.70
2018-06-13T05:57:38.985Z,19.00
2018-06-13T06:00:07.894Z,18.60
2018-06-13T06:02:36.753Z,18.50
2018-06-13T06:05:05.663Z,18.50
2018-06-13T06:07:34.552Z,18.50
2018-06-13T06:10:03.547Z,19.00
2018-06-13T06:12:32.469Z,19.00
2018-06-13T06:15:01.377Z,18.90
2018-06-13T06:17:30.254Z,18.80
2018-06-13T06:19:59.212Z,18.80
2018-06-13T06:22:28.217Z,19.00
2018-06-13T06:24:57.236Z,19.00
2018-06-13T06:27:26.309Z,19.40
2018-06-13T06:29:55.329Z,19.30
2018-06-13T06:32:24.255Z,18.90
2018-06-13T06:34:53.323Z,19.00
2018-06-13T06:37:22.189Z,18.80
2018-06-13T06:39:51.062Z,19.20
2018-06-13T06:42:19.926Z,19.40
2018-06-13T06:44:48.840Z,18.90
2018-06-13T06:47:18.633Z,19.10
2018-06-13T06:49:47.481Z,19.10
2018-06-13T06:52:16.352Z,19.20
2018-06-13T06:54:45.246Z,18.70
2018-06-13T06:57:14.209Z,19.20
2018-06-13T06:59:43.073Z,19.40
2018-06-13T07:02:11.921Z,19.50
2018-06-13T07:04:40.797Z,19.70
2018-06-13T07:07:09.668Z,19.60
2018-06-13T07:09:38.516Z,19.70
2018-06-13T07:12:07.419Z,19.40
2018-06-13T07:14:36.280Z,19.30
2018-06-13T07:17:05.148Z,19.30
2018-06-13T07:19:34.025Z,19.40
2018-06-13T07:22:02.929Z,19.30
2018-06-13T07:24:31.879Z,19.10
2018-06-13T07:27:00.831Z,18.80
2018-06-13T07:29:29.836Z,18.70
2018-06-13T07:31:58.802Z,18.70
2018-06-13T07:34:27.881Z,19.20
2018-06-13T07:36:57.177Z,19.60
2018-06-13T07:39:26.185Z,19.90
2018-06-13T07:41:55.137Z,19.90
2018-06-13T07:44:24.071Z,19.60
2018-06-13T07:46:52.931Z,19.40
2018-06-13T07:49:21.784Z,19.30
2018-06-13T07:51:50.637Z,19.30
2018-06-13T07:54:19.486Z,19.70
2018-06-13T07:56:48.374Z,19.70
2018-06-13T07:59:17.270Z,19.70
2018-06-13T08:01:46.124Z,19.80
2018-06-13T08:04:14.993Z,20.10
2018-06-13T08:06:43.856Z,20.30
2018-06-13T08:09:12.775Z,20.30
2018-06-13T08:11:41.624Z,19.70
2018-06-13T08:14:10.501Z,20.10
2018-06-13T08:16:39.416Z,20.20
2018-06-13T08:19:08.340Z,20.20
2018-06-13T08:21:37.186Z,20.30
2018-06-13T08:24:06.065Z,20.50
2018-06-13T08:26:34.903Z,20.30
2018-06-13T08:29:03.885Z,20.10
2018-06-13T08:31:32.749Z,20.40
2018-06-13T08:34:01.653Z,20.10
2018-06-13T08:36:30.541Z,20.30
2018-06-13T08:38:59.445Z,20.30
2018-06-13T08:41:28.333Z,20.20
2018-06-13T08:43:57.261Z,20.10
2018-06-13T08:46:26.247Z,20.20
2018-06-13T08:48:55.173Z,20.20
2018-06-13T08:51:24.066Z,20.20
2018-06-13T08:53:52.966Z,20.10
2018-06-13T08:56:21.811Z,20.30
2018-06-13T08:58:50.640Z,20.50
2018-06-13T09:01:19.511Z,20.40
2018-06-13T09:03:48.369Z,20.40
2018-06-13T09:06:17.237Z,20.40
2018-06-13T09:08:46.129Z,20.30
2018-06-13T09:11:15.232Z,19.90
2018-06-13T09:13:44.097Z,20.00
2018-06-13T09:18:41.557Z,20.10
2018-06-13T09:21:10.426Z,19.90
2018-06-13T09:23:39.317Z,20.30
2018-06-13T09:26:08.210Z,20.20
2018-06-13T09:28:37.125Z,20.20
2018-06-13T09:31:06.084Z,20.30
2018-06-13T09:33:34.931Z,20.20
2018-06-13T09:36:03.808Z,20.40
2018-06-13T09:41:01.264Z,20.20
2018-06-13T09:43:30.271Z,20.20
2018-06-13T09:46:03.400Z,19.90
2018-06-13T09:48:28.219Z,20.00
2018-06-13T09:50:57.542Z,20.30
2018-06-13T09:53:26.541Z,20.30
2018-06-13T09:55:55.484Z,20.20
2018-06-13T09:58:24.445Z,20.00
2018-06-13T10:00:58.771Z,20.30
2018-06-13T10:03:27.673Z,20.50
2018-06-13T10:05:56.597Z,20.60
2018-06-13T10:08:25.814Z,20.50
2018-06-13T10:10:54.862Z,20.40
2018-06-13T10:13:23.812Z,20.50
2018-06-13T10:15:53.009Z,20.60
2018-06-13T10:18:21.872Z,20.70
2018-06-13T10:20:50.722Z,20.60
2018-06-13T10:23:19.617Z,20.60
2018-06-13T10:25:48.488Z,20.40
2018-06-13T10:28:17.346Z,20.50
2018-06-13T10:33:14.717Z,20.40
2018-06-13T10:35:43.605Z,20.10
2018-06-13T10:38:12.486Z,20.00
2018-06-13T10:40:41.359Z,20.10
2018-06-13T10:43:10.220Z,20.10
2018-06-13T10:45:39.096Z,20.20
2018-06-13T10:48:07.998Z,20.30
2018-06-13T10:50:36.893Z,20.30
2018-06-13T10:53:05.868Z,20.20
2018-06-13T10:55:34.756Z,19.80
2018-06-13T10:58:05.677Z,20.10
2018-06-13T11:00:34.556Z,20.30
2018-06-13T11:03:03.447Z,20.30
2018-06-13T11:05:32.361Z,20.00
2018-06-13T11:08:01.277Z,20.10
2018-06-13T11:10:30.223Z,20.00
2018-06-13T11:12:59.140Z,19.80
2018-06-13T11:15:28.155Z,19.80
2018-06-13T11:17:57.114Z,20.00
2018-06-13T11:20:26.079Z,20.30
2018-06-13T11:22:54.909Z,20.40
2018-06-13T11:25:23.797Z,20.40
2018-06-13T11:27:53.044Z,20.30
2018-06-13T11:30:21.940Z,20.40
2018-06-13T11:32:50.825Z,20.60
2018-06-13T11:35:19.750Z,20.40
2018-06-13T11:37:48.689Z,20.50
2018-06-13T11:40:17.545Z,20.40
2018-06-13T11:42:46.458Z,20.20
2018-06-13T11:45:15.312Z,20.30
2018-06-13T11:47:45.121Z,20.20
2018-06-13T11:50:14.009Z,19.90
2018-06-13T11:52:42.921Z,20.10
2018-06-13T11:55:14.133Z,19.90
2018-06-13T11:57:43.151Z,20.10
2018-06-13T12:00:12.072Z,20.40
2018-06-13T12:02:41.012Z,20.40
2018-06-13T12:05:10.336Z,20.20
2018-06-13T12:07:39.202Z,20.40
2018-06-13T12:10:08.145Z,20.30
2018-06-13T12:12:36.988Z,20.20
2018-06-13T12:15:11.606Z,19.90
2018-06-13T12:17:41.937Z,20.10
2018-06-13T12:20:10.950Z,19.80
2018-06-13T12:22:39.809Z,19.60
2018-06-13T12:25:08.681Z,19.60
2018-06-13T12:27:37.584Z,20.40
2018-06-13T12:30:06.724Z,20.20
2018-06-13T12:32:35.721Z,19.80
2018-06-13T12:35:04.657Z,19.90
2018-06-13T12:37:33.618Z,20.00
2018-06-13T12:40:04.241Z,19.90
2018-06-13T12:42:33.195Z,19.70
2018-06-13T12:45:02.313Z,20.10
2018-06-13T12:47:31.448Z,20.20
2018-06-13T12:50:00.652Z,20.40
2018-06-13T12:52:29.726Z,20.50
2018-06-13T12:54:59.122Z,20.00
2018-06-13T12:57:28.074Z,19.70
2018-06-13T12:59:57.146Z,20.10
2018-06-13T13:02:26.381Z,20.30
2018-06-13T13:04:57.033Z,20.00
2018-06-13T13:07:27.029Z,19.80
2018-06-13T13:09:56.046Z,19.70
2018-06-13T13:12:25.304Z,20.00
2018-06-13T13:14:55.313Z,20.20
2018-06-13T13:17:25.214Z,20.40
2018-06-13T13:19:54.131Z,20.30
2018-06-13T13:22:23.128Z,20.20
2018-06-13T13:24:52.410Z,20.20
2018-06-13T13:27:24.521Z,20.00
2018-06-13T13:29:54.717Z,19.70
2018-06-13T13:32:24.199Z,19.90
2018-06-13T13:34:53.057Z,19.90
2018-06-13T13:37:22.299Z,19.90
2018-06-13T13:39:51.186Z,19.90
2018-06-13T13:42:20.176Z,20.00
2018-06-13T13:44:49.189Z,20.00
2018-06-13T13:47:18.193Z,20.30
2018-06-13T13:49:47.137Z,20.20
2018-06-13T13:52:16.218Z,20.30
2018-06-13T13:54:45.045Z,20.40
2018-06-13T13:57:14.161Z,20.50
2018-06-13T13:59:43.045Z,20.50
2018-06-13T14:02:11.915Z,20.50
2018-06-13T14:04:41.509Z,20.50
2018-06-13T14:07:10.522Z,20.60
2018-06-13T14:09:39.520Z,20.40
2018-06-13T14:12:08.425Z,20.40
2018-06-13T14:14:37.325Z,20.50
2018-06-13T14:17:06.212Z,20.30
2018-06-13T14:19:35.090Z,20.20
2018-06-13T14:22:03.994Z,20.30
2018-06-13T14:24:32.908Z,20.40
2018-06-13T14:27:01.829Z,20.40
2018-06-13T14:29:30.739Z,20.50
2018-06-13T14:31:59.625Z,20.20
2018-06-13T14:34:28.538Z,20.00
2018-06-13T14:36:57.564Z,20.20
2018-06-13T14:39:26.641Z,20.40
2018-06-13T14:41:55.586Z,20.10
2018-06-13T14:44:24.742Z,20.00
2018-06-13T14:46:53.653Z,20.10
2018-06-13T14:49:22.523Z,20.30
2018-06-13T14:51:52.975Z,20.10
2018-06-13T14:54:22.003Z,20.30
2018-06-13T14:56:50.919Z,20.30
2018-06-13T14:59:19.827Z,20.50
2018-06-13T15:01:49.472Z,20.50
2018-06-13T15:04:24.198Z,20.60
2018-06-13T15:06:53.071Z,20.50
2018-06-13T15:09:21.920Z,20.60
2018-06-13T15:11:50.787Z,20.50
2018-06-13T15:14:19.653Z,20.50
2018-06-13T15:16:48.520Z,20.50
2018-06-13T15:19:17.409Z,20.60
2018-06-13T15:21:46.346Z,20.50
2018-06-13T15:24:15.211Z,20.40
2018-06-13T15:26:44.148Z,20.40
2018-06-13T15:29:13.251Z,20.10
2018-06-13T15:31:42.103Z,20.10
2018-06-13T15:34:10.950Z,20.40
2018-06-13T15:36:39.914Z,20.50
2018-06-13T15:39:11.013Z,20.50
2018-06-13T15:41:39.904Z,20.30
2018-06-13T15:44:09.009Z,20.40
2018-06-13T15:46:37.913Z,20.30
2018-06-13T15:49:07.598Z,20.30
2018-06-13T15:51:36.501Z,20.30
2018-06-13T15:54:05.393Z,20.30
2018-06-13T15:56:34.281Z,20.20
2018-06-13T15:59:03.189Z,20.20
2018-06-13T16:01:32.629Z,20.00
2018-06-13T16:04:01.625Z,19.90
2018-06-13T16:06:30.481Z,19.90
2018-06-13T16:08:59.408Z,19.80
2018-06-13T16:11:28.488Z,19.60
2018-06-13T16:13:57.433Z,19.80
2018-06-13T16:16:26.337Z,20.00
2018-06-13T16:18:55.396Z,19.70
2018-06-13T16:21:25.354Z,19.90
2018-06-13T16:23:54.233Z,19.80
2018-06-13T16:28:51.699Z,19.90
2018-06-13T16:31:20.597Z,20.30
2018-06-13T16:33:49.444Z,20.40
2018-06-13T16:36:18.298Z,20.10
2018-06-13T16:38:47.137Z,20.20
2018-06-13T16:41:16.005Z,20.00
2018-06-13T16:43:45.120Z,19.80
2018-06-13T16:46:13.979Z,19.70
2018-06-13T16:48:42.844Z,19.70
2018-06-13T16:51:23.213Z,19.60
2018-06-13T16:54:03.596Z,19.70
2018-06-13T16:56:32.478Z,19.80
2018-06-13T16:59:01.505Z,20.00
2018-06-13T17:01:30.486Z,19.80
2018-06-13T17:03:59.456Z,19.90
2018-06-13T17:06:28.527Z,19.70
2018-06-13T17:08:57.424Z,19.90
2018-06-13T17:11:26.432Z,19.70
2018-06-13T17:13:55.570Z,20.10
2018-06-13T17:16:24.573Z,20.10
2018-06-13T17:18:53.658Z,20.00
2018-06-13T17:21:22.542Z,19.90
2018-06-13T17:23:51.461Z,19.90
2018-06-13T17:26:20.390Z,19.80
2018-06-13T17:28:49.292Z,19.90
2018-06-13T17:31:18.170Z,19.80
2018-06-13T17:33:47.080Z,19.80
2018-06-13T17:36:15.961Z,19.80
2018-06-13T17:38:44.860Z,19.90
2018-06-13T17:41:13.700Z,20.00
2018-06-13T17:43:42.564Z,20.30
2018-06-13T17:46:11.422Z,20.20
2018-06-13T17:48:40.498Z,20.20
2018-06-13T17:51:09.374Z,19.70
2018-06-13T17:53:38.286Z,20.10
2018-06-13T17:56:07.113Z,20.10
2018-06-13T17:58:35.945Z,20.00
2018-06-13T18:01:04.809Z,20.20
2018-06-13T18:03:33.685Z,20.40
2018-06-13T18:06:02.694Z,19.70
2018-06-13T18:08:31.592Z,20.00
2018-06-13T18:11:00.620Z,20.10
2018-06-13T18:13:29.545Z,20.00
2018-06-13T18:15:58.462Z,20.00
2018-06-13T18:18:27.456Z,20.30
2018-06-13T18:20:56.381Z,20.30
2018-06-13T18:23:25.472Z,20.50
2018-06-13T18:25:54.434Z,19.90
2018-06-13T18:28:23.281Z,19.50
2018-06-13T18:30:52.125Z,19.60
2018-06-13T18:33:20.977Z,19.60
2018-06-13T18:35:49.838Z,19.60
2018-06-13T18:38:18.701Z,19.80
2018-06-13T18:40:47.574Z,20.10
2018-06-13T18:43:16.415Z,19.70
2018-06-13T18:45:45.298Z,19.50
2018-06-13T18:48:14.158Z,19.00
2018-06-13T18:50:43.002Z,19.10
2018-06-13T18:53:11.877Z,18.70
2018-06-13T18:55:40.761Z,19.40
2018-06-13T18:58:09.638Z,19.40
2018-06-13T19:00:38.754Z,19.40
2018-06-13T19:03:07.693Z,18.80
2018-06-13T19:05:36.687Z,18.60
2018-06-13T19:08:07.090Z,19.20
2018-06-13T19:10:36.039Z,19.50
2018-06-13T19:13:05.634Z,19.40
2018-06-13T19:15:34.852Z,19.30
2018-06-13T19:18:03.847Z,18.80
2018-06-13T19:20:33.233Z,19.20
2018-06-13T19:23:02.307Z,19.30
2018-06-13T19:25:31.335Z,19.70
2018-06-13T19:28:00.545Z,20.00
2018-06-13T19:30:30.358Z,19.60
2018-06-13T19:32:59.331Z,19.30
2018-06-13T19:35:29.129Z,19.10
2018-06-13T19:37:58.904Z,19.10
2018-06-13T19:40:28.732Z,19.20
2018-06-13T19:43:29.130Z,19.00
2018-06-13T19:46:13.623Z,18.70
2018-06-13T19:48:47.457Z,18.80
2018-06-13T19:51:16.405Z,19.00
2018-06-13T19:53:50.808Z,18.90
2018-06-13T19:56:25.074Z,19.00
2018-06-13T19:58:55.676Z,19.30
2018-06-13T20:01:24.796Z,19.50
2018-06-13T20:03:59.292Z,19.40
2018-06-13T20:06:28.485Z,19.40
2018-06-13T20:08:57.512Z,19.30
2018-06-13T20:11:26.574Z,19.40
2018-06-13T20:14:02.145Z,19.30
2018-06-13T20:16:48.392Z,19.10
2018-06-13T20:19:23.240Z,19.20
2018-06-13T20:21:56.578Z,18.60
2018-06-13T20:24:25.621Z,18.60
2018-06-13T20:26:59.960Z,19.00
2018-06-13T20:29:34.980Z,19.50
2018-06-13T20:32:04.003Z,19.10
2018-06-13T20:34:33.464Z,19.40
2018-06-13T20:37:02.497Z,19.10
2018-06-13T20:39:31.397Z,18.80
2018-06-13T20:42:00.509Z,18.70
2018-06-13T20:44:29.718Z,19.00
2018-06-13T20:46:59.653Z,18.80
2018-06-13T20:49:28.622Z,18.70
2018-06-13T20:51:57.504Z,18.40
2018-06-13T20:54:26.389Z,18.40
2018-06-13T20:56:55.377Z,18.50
2018-06-13T20:59:24.320Z,18.30
2018-06-13T21:01:53.168Z,18.30
2018-06-13T21:04:22.058Z,18.30
2018-06-13T21:06:50.992Z,18.20
2018-06-13T21:09:21.213Z,18.20
2018-06-13T21:11:51.316Z,18.30
2018-06-13T21:14:20.168Z,18.40
2018-06-13T21:16:49.048Z,18.10
2018-06-13T21:19:17.953Z,18.20
2018-06-13T21:21:46.856Z,18.80
2018-06-13T21:24:15.707Z,19.00
2018-06-13T21:26:44.593Z,18.70
2018-06-13T21:29:13.409Z,18.50
2018-06-13T21:31:42.260Z,18.10
2018-06-13T21:34:11.100Z,18.10
2018-06-13T21:36:39.977Z,18.20
2018-06-13T21:39:10.208Z,18.70
2018-06-13T21:41:39.162Z,18.50
2018-06-13T21:44:08.124Z,18.30
2018-06-13T21:46:36.969Z,18.60
2018-06-13T21:49:06.810Z,19.00
2018-06-13T21:51:35.648Z,18.70
2018-06-13T21:54:04.641Z,18.20
2018-06-13T21:56:33.589Z,18.10
2018-06-13T21:59:02.472Z,18.10
2018-06-13T22:01:31.339Z,17.90
2018-06-13T22:04:00.191Z,17.80
2018-06-13T22:08:58.657Z,19.40
2018-06-13T22:11:27.870Z,19.00
2018-06-13T22:13:56.809Z,18.70
2018-06-13T22:18:54.912Z,18.70
2018-06-13T22:21:23.802Z,18.60
2018-06-13T22:23:52.691Z,18.40
2018-06-13T22:26:21.513Z,18.00
2018-06-13T22:28:50.394Z,18.00
2018-06-13T22:31:19.260Z,17.90
2018-06-13T22:33:48.116Z,18.10
2018-06-13T22:36:17.013Z,18.10
2018-06-13T22:38:45.880Z,18.40
2018-06-13T22:41:14.783Z,18.20
2018-06-13T22:43:43.680Z,18.00
2018-06-13T22:46:12.533Z,18.00
2018-06-13T22:48:41.728Z,18.10
2018-06-13T22:51:10.598Z,18.10
2018-06-13T22:53:39.553Z,18.10
2018-06-13T22:56:08.544Z,18.00
2018-06-13T22:58:37.374Z,17.90
2018-06-13T23:01:10.412Z,17.70
2018-06-13T23:03:39.314Z,17.80
2018-06-13T23:06:09.350Z,17.80
2018-06-13T23:08:38.772Z,17.80
2018-06-13T23:11:07.663Z,17.90
2018-06-13T23:13:36.524Z,18.00
2018-06-13T23:16:05.441Z,17.70
2018-06-13T23:18:34.323Z,17.80
2018-06-13T23:21:03.286Z,17.70
2018-06-13T23:23:32.208Z,17.80
2018-06-13T23:26:01.214Z,17.90
2018-06-13T23:28:30.097Z,17.90
2018-06-13T23:30:58.969Z,17.80
2018-06-13T23:33:27.972Z,17.70
2018-06-13T23:35:56.849Z,17.70
2018-06-13T23:38:25.742Z,17.70
2018-06-13T23:40:54.701Z,17.80
2018-06-13T23:43:23.631Z,17.80
2018-06-13T23:45:52.517Z,17.80
2018-06-13T23:48:21.396Z,17.80
2018-06-13T23:50:50.384Z,17.90
2018-06-13T23:53:19.325Z,18.10
2018-06-13T23:55:48.177Z,18.10
2018-06-13T23:58:17.000Z,17.90
